createdAt,value
2023-05-02T00:03:53.015Z,0.90
2023-05-02T00:08:56.357Z,1.13
2023-05-02T00:13:59.279Z,1.20
2023-05-02T00:19:02.217Z,1.20
2023-05-02T00:24:05.953Z,1.30
2023-05-02T00:29:08.962Z,1.10
2023-05-02T00:34:11.905Z,1.10
2023-05-02T00:39:15.381Z,1.30
2023-05-02T00:44:18.348Z,1.20
2023-05-02T00:49:21.513Z,1.00
2023-05-02T00:54:24.551Z,1.20
2023-05-02T00:59:27.468Z,1.17
2023-05-02T01:04:58.001Z,1.00
2023-05-02T01:10:15.085Z,1.57
2023-05-02T01:15:22.545Z,1.47
2023-05-02T01:20:29.395Z,1.67
2023-05-02T01:25:37.978Z,1.07
2023-05-02T01:30:45.004Z,1.20
2023-05-02T01:35:52.661Z,0.97
2023-05-02T01:40:59.183Z,1.10
2023-05-02T01:46:05.220Z,1.20
2023-05-02T01:51:09.220Z,1.13
2023-05-02T01:56:12.784Z,1.13
2023-05-02T02:01:17.888Z,1.07
2023-05-02T02:06:22.325Z,1.10
2023-05-02T02:11:40.761Z,1.10
2023-05-02T02:16:44.323Z,1.37
2023-05-02T02:21:49.376Z,0.83
2023-05-02T02:26:52.529Z,0.90
2023-05-02T02:31:55.540Z,1.17
2023-05-02T02:37:18.398Z,1.30
2023-05-02T02:42:44.185Z,4.37
2023-05-02T02:48:07.458Z,3.50
2023-05-02T02:53:19.710Z,3.53
2023-05-02T02:58:48.029Z,2.43
2023-05-02T03:03:53.611Z,2.50
2023-05-02T03:08:56.938Z,2.23
2023-05-02T03:13:59.956Z,1.70
2023-05-02T03:19:04.378Z,1.67
2023-05-02T03:24:07.377Z,3.23
2023-05-02T03:29:10.895Z,2.93
2023-05-02T03:34:13.835Z,4.20
2023-05-02T03:39:17.734Z,4.93
2023-05-02T03:44:20.712Z,6.30
2023-05-02T03:49:23.493Z,6.33
2023-05-02T03:54:26.524Z,4.77
2023-05-02T03:59:29.605Z,4.00
2023-05-02T04:04:33.109Z,3.60
2023-05-02T04:09:36.171Z,5.20
2023-05-02T04:14:39.235Z,3.00
2023-05-02T04:19:42.633Z,2.10
2023-05-02T04:24:45.697Z,2.47
2023-05-02T04:29:50.258Z,3.00
2023-05-02T04:34:53.265Z,2.47
2023-05-02T04:39:56.330Z,2.43
2023-05-02T04:45:00.484Z,2.27
2023-05-02T04:50:03.632Z,2.17
2023-05-02T04:55:07.387Z,8.03
2023-05-02T05:00:11.330Z,23.43
2023-05-02T05:05:14.553Z,5.03
2023-05-02T05:10:17.640Z,22.30
2023-05-02T05:15:22.712Z,49.03
2023-05-02T05:20:25.706Z,90.83
2023-05-02T05:25:28.848Z,32.10
2023-05-02T05:30:32.236Z,60.27
2023-05-02T05:35:35.308Z,25.60
2023-05-02T05:40:38.314Z,16.67
2023-05-02T05:45:41.228Z,14.43
2023-05-02T05:50:44.174Z,4.30
2023-05-02T05:55:47.352Z,8.10
2023-05-02T06:00:50.758Z,5.77
2023-05-02T06:05:53.850Z,4.43
2023-05-02T06:10:57.000Z,7.03
2023-05-02T06:16:03.374Z,5.60
2023-05-02T06:21:06.911Z,3.60
2023-05-02T06:26:10.612Z,9.73
2023-05-02T06:31:13.613Z,6.35
2023-05-02T06:36:16.564Z,3.33
2023-05-02T06:41:20.866Z,4.30
2023-05-02T06:46:24.436Z,8.48
2023-05-02T06:51:27.766Z,2.75
2023-05-02T06:56:31.263Z,11.35
2023-05-02T07:01:34.295Z,3.30
2023-05-02T07:06:37.409Z,3.42
2023-05-02T07:11:40.492Z,3.33
2023-05-02T07:16:43.517Z,6.40
2023-05-02T07:21:46.557Z,3.53
2023-05-02T07:26:49.676Z,2.53
2023-05-02T07:31:52.754Z,3.28
2023-05-02T07:36:56.178Z,6.68
2023-05-02T07:41:59.373Z,3.10
2023-05-02T07:47:02.773Z,2.55
2023-05-02T07:52:05.861Z,2.88
2023-05-02T07:57:09.083Z,3.22
2023-05-02T08:02:13.851Z,2.40
2023-05-02T08:07:17.349Z,2.92
2023-05-02T08:12:20.388Z,3.00
2023-05-02T08:17:23.453Z,2.50
2023-05-02T08:22:26.409Z,2.28
2023-05-02T08:27:29.425Z,2.15
2023-05-02T08:32:33.140Z,2.10
2023-05-02T08:37:36.582Z,1.90
2023-05-02T08:42:44.814Z,2.15
2023-05-02T08:47:50.022Z,2.13
2023-05-02T08:52:54.188Z,2.20
2023-05-02T08:57:59.146Z,2.03
2023-05-02T09:03:33.870Z,2.25
2023-05-02T09:08:37.666Z,2.17
2023-05-02T09:13:43.641Z,2.28
2023-05-02T09:18:49.119Z,2.08
2023-05-02T09:23:57.638Z,2.13
2023-05-02T09:29:05.067Z,1.88
2023-05-02T09:34:19.283Z,1.90
2023-05-02T09:39:29.343Z,1.85
2023-05-02T09:44:39.318Z,1.73
2023-05-02T09:54:52.281Z,1.60
2023-05-02T09:59:59.133Z,1.70
2023-05-02T10:05:04.742Z,1.80
2023-05-02T10:10:12.622Z,2.20
2023-05-02T10:15:19.010Z,1.70
2023-05-02T10:20:37.944Z,1.80
2023-05-02T10:25:41.230Z,1.73
2023-05-02T10:30:45.955Z,1.60
2023-05-02T10:35:49.131Z,1.70
2023-05-02T10:41:01.271Z,1.63
2023-05-02T10:46:24.481Z,1.63
2023-05-02T10:51:32.204Z,1.85
2023-05-02T10:56:35.404Z,1.50
2023-05-02T11:01:39.691Z,1.80
2023-05-02T11:07:05.720Z,1.48
2023-05-02T11:12:08.738Z,1.38
2023-05-02T11:17:11.740Z,1.77
2023-05-02T11:22:20.779Z,1.70
2023-05-02T11:27:30.070Z,1.85
2023-05-02T11:32:49.914Z,2.00
2023-05-02T11:37:57.018Z,1.77
2023-05-02T11:43:01.494Z,1.88
2023-05-02T11:48:08.487Z,1.60
2023-05-02T11:53:17.602Z,2.10
2023-05-02T11:58:29.619Z,1.83
2023-05-02T12:03:34.178Z,1.63
2023-05-02T12:08:38.048Z,1.83
2023-05-02T12:13:50.001Z,1.50
2023-05-02T12:18:53.575Z,1.63
2023-05-02T12:23:57.285Z,1.85
2023-05-02T12:29:02.090Z,1.80
2023-05-02T12:34:05.056Z,1.55
2023-05-02T12:39:08.030Z,1.73
2023-05-02T12:44:11.097Z,1.77
2023-05-02T12:49:14.156Z,1.40
2023-05-02T12:54:21.451Z,1.48
2023-05-02T12:59:30.432Z,1.58
2023-05-02T13:04:42.202Z,1.57
2023-05-02T13:09:45.194Z,1.42
2023-05-02T13:14:48.243Z,1.40
2023-05-02T13:20:00.850Z,1.40
2023-05-02T13:25:06.638Z,1.80
2023-05-02T13:30:10.888Z,1.42
2023-05-02T13:35:15.823Z,1.25
2023-05-02T13:40:18.913Z,1.40
2023-05-02T13:45:22.352Z,1.60
2023-05-02T13:50:25.357Z,1.45
2023-05-02T13:55:28.289Z,1.05
2023-05-02T14:00:31.414Z,1.40
2023-05-02T14:05:34.421Z,1.45
2023-05-02T14:10:37.989Z,1.15
2023-05-02T14:15:40.905Z,1.60
2023-05-02T14:20:44.450Z,1.40
2023-05-02T14:25:47.220Z,1.60
2023-05-02T14:30:51.284Z,1.38
2023-05-02T14:35:54.404Z,1.30
2023-05-02T14:40:57.390Z,1.50
2023-05-02T14:46:00.537Z,1.52
2023-05-02T14:51:05.692Z,1.73
2023-05-02T14:56:14.854Z,1.60
2023-05-02T15:01:23.472Z,2.08
2023-05-02T15:06:33.246Z,1.73
2023-05-02T15:11:36.839Z,1.60
2023-05-02T15:16:39.956Z,1.77
2023-05-02T15:21:43.168Z,1.83
2023-05-02T15:26:46.730Z,1.67
2023-05-02T15:31:49.663Z,1.42
2023-05-02T15:36:52.808Z,1.63
2023-05-02T15:41:55.868Z,1.42
2023-05-02T15:47:00.299Z,1.73
2023-05-02T15:52:03.560Z,1.80
2023-05-02T15:57:06.596Z,1.52
2023-05-02T16:02:09.680Z,1.50
2023-05-02T16:07:12.641Z,1.55
2023-05-02T16:12:15.708Z,1.58
2023-05-02T16:17:18.666Z,1.63
2023-05-02T16:22:22.306Z,2.40
2023-05-02T16:27:25.508Z,2.75
2023-05-02T16:32:28.347Z,2.90
2023-05-02T16:37:33.731Z,2.30
2023-05-02T16:42:37.328Z,2.72
2023-05-02T16:47:40.365Z,4.20
2023-05-02T16:52:44.544Z,3.60
2023-05-02T16:57:48.010Z,2.90
2023-05-02T17:02:55.090Z,3.90
2023-05-02T17:07:58.580Z,4.15
2023-05-02T17:13:01.521Z,4.15
2023-05-02T17:18:05.258Z,4.63
2023-05-02T17:23:09.168Z,7.15
2023-05-02T17:28:12.271Z,3.28
2023-05-02T17:33:16.208Z,5.15
2023-05-02T17:38:28.895Z,3.45
2023-05-02T17:43:32.187Z,3.55
2023-05-02T17:48:35.399Z,2.80
2023-05-02T17:53:39.242Z,3.30
2023-05-02T17:58:42.188Z,2.80
2023-05-02T18:03:45.456Z,3.42
2023-05-02T18:08:48.683Z,3.55
2023-05-02T18:13:52.058Z,3.58
2023-05-02T18:18:55.329Z,3.20
2023-05-02T18:23:58.184Z,4.65
2023-05-02T18:29:01.167Z,5.10
2023-05-02T18:34:04.752Z,4.68
2023-05-02T18:39:10.453Z,5.30
2023-05-02T18:44:13.462Z,3.30
2023-05-02T18:49:17.736Z,2.90
2023-05-02T18:54:22.888Z,3.35
2023-05-02T18:59:26.716Z,3.85
2023-05-02T19:04:33.088Z,4.63
2023-05-02T19:09:37.272Z,4.80
2023-05-02T19:14:40.523Z,6.38
2023-05-02T19:19:46.704Z,5.05
2023-05-02T19:24:51.005Z,5.63
2023-05-02T19:29:54.730Z,5.72
2023-05-02T19:34:58.063Z,5.25
2023-05-02T19:40:01.169Z,4.50
2023-05-02T19:45:04.744Z,3.75
2023-05-02T19:50:09.451Z,4.10
2023-05-02T19:55:12.618Z,5.07
2023-05-02T20:00:16.284Z,6.00
2023-05-02T20:05:19.712Z,5.80
2023-05-02T20:10:22.877Z,5.32
2023-05-02T20:15:26.003Z,5.20
2023-05-02T20:20:30.230Z,4.22
2023-05-02T20:25:33.324Z,3.63
2023-05-02T20:30:36.348Z,3.15
2023-05-02T20:35:39.329Z,3.03
2023-05-02T20:40:42.835Z,3.22
2023-05-02T20:45:47.123Z,2.97
2023-05-02T20:50:54.670Z,2.70
2023-05-02T20:55:57.805Z,3.35
2023-05-02T21:01:01.420Z,4.13
2023-05-02T21:06:04.536Z,3.15
2023-05-02T21:11:16.862Z,3.72
2023-05-02T21:16:22.113Z,3.77
2023-05-02T21:21:25.307Z,4.00
2023-05-02T21:26:28.368Z,3.90
2023-05-02T21:31:33.215Z,3.90
2023-05-02T21:36:36.399Z,3.83
2023-05-02T21:41:39.478Z,3.80
2023-05-02T21:46:42.712Z,3.33
2023-05-02T21:51:45.851Z,3.20
2023-05-02T21:56:48.871Z,3.07
2023-05-02T22:01:52.316Z,3.40
2023-05-02T22:06:55.855Z,3.70
2023-05-02T22:11:58.980Z,3.60
2023-05-02T22:17:04.625Z,4.17
2023-05-02T22:22:08.134Z,3.87
2023-05-02T22:27:11.256Z,4.10
2023-05-02T22:32:14.296Z,3.93
2023-05-02T22:37:17.195Z,3.90
2023-05-02T22:42:20.899Z,3.90
2023-05-02T22:47:24.099Z,3.67
2023-05-02T22:52:27.495Z,4.50
2023-05-02T22:57:31.393Z,4.13
2023-05-02T23:02:35.821Z,3.77
2023-05-02T23:07:39.574Z,4.03
2023-05-02T23:12:42.640Z,4.70
2023-05-02T23:17:45.687Z,3.87
2023-05-02T23:22:48.769Z,4.40
2023-05-02T23:27:51.990Z,4.07
2023-05-02T23:32:55.551Z,4.00
2023-05-02T23:38:07.089Z,5.23
2023-05-02T23:43:10.994Z,4.67
2023-05-02T23:48:13.986Z,4.40
2023-05-02T23:53:17.063Z,5.20
2023-05-02T23:58:20.140Z,4.20
